sensor_id;sensor_type;location;lat;lon;timestamp;pressure;altitude;pressure_sealevel;temperature;humidity
59531;BME280;45349;48.692;8.186;2022-11-21T00:02:08;97962.88;;;5.53;100.00
59531;BME280;45349;48.692;8.186;2022-11-21T00:04:34;97962.75;;;5.55;100.00
59531;BME280;45349;48.692;8.186;2022-11-21T00:09:49;97956.06;;;5.62;100.00
59531;BME280;45349;48.692;8.186;2022-11-21T00:12:16;97949.66;;;5.66;99.63
59531;BME280;45349;48.692;8.186;2022-11-21T00:14:43;97929.34;;;5.71;99.62
59531;BME280;45349;48.692;8.186;2022-11-21T00:17:09;97958.13;;;5.78;99.28
59531;BME280;45349;48.692;8.186;2022-11-21T00:19:36;97963.03;;;5.81;99.28
59531;BME280;45349;48.692;8.186;2022-11-21T00:22:02;97960.56;;;5.80;100.00
59531;BME280;45349;48.692;8.186;2022-11-21T00:24:29;97965.22;;;5.76;100.00
59531;BME280;45349;48.692;8.186;2022-11-21T00:26:57;97973.41;;;5.81;100.00
59531;BME280;45349;48.692;8.186;2022-11-21T00:29:24;97952.53;;;5.73;100.00
59531;BME280;45349;48.692;8.186;2022-11-21T00:31:50;97955.25;;;5.71;100.00
59531;BME280;45349;48.692;8.186;2022-11-21T00:34:17;97961.38;;;5.70;100.00
59531;BME280;45349;48.692;8.186;2022-11-21T00:36:43;97943.94;;;5.72;100.00
59531;BME280;45349;48.692;8.186;2022-11-21T00:39:10;97946.53;;;5.72;100.00
59531;BME280;45349;48.692;8.186;2022-11-21T00:41:37;97950.34;;;5.68;100.00
59531;BME280;45349;48.692;8.186;2022-11-21T00:44:05;97957.31;;;5.68;100.00
59531;BME280;45349;48.692;8.186;2022-11-21T00:46:31;97943.25;;;5.70;100.00
59531;BME280;45349;48.692;8.186;2022-11-21T00:48:58;97962.50;;;5.68;100.00
59531;BME280;45349;48.692;8.186;2022-11-21T00:51:24;97959.22;;;5.66;100.00
59531;BME280;45349;48.692;8.186;2022-11-21T00:53:51;97943.28;;;5.60;100.00
59531;BME280;45349;48.692;8.186;2022-11-21T00:56:17;97951.44;;;5.56;100.00
59531;BME280;45349;48.692;8.186;2022-11-21T00:58:44;97935.47;;;5.51;100.00
59531;BME280;45349;48.692;8.186;2022-11-21T01:01:13;97941.63;;;5.50;100.00
59531;BME280;45349;48.692;8.186;2022-11-21T01:03:40;97938.34;;;5.47;100.00
59531;BME280;45349;48.692;8.186;2022-11-21T01:06:09;97942.44;;;5.50;100.00
59531;BME280;45349;48.692;8.186;2022-11-21T01:08:37;97943.41;;;5.49;100.00
59531;BME280;45349;48.692;8.186;2022-11-21T01:11:05;97950.75;;;5.44;100.00
59531;BME280;45349;48.692;8.186;2022-11-21T01:13:33;97959.19;;;5.46;100.00
59531;BME280;45349;48.692;8.186;2022-11-21T01:16:04;97962.88;;;5.53;100.00
59531;BME280;45349;48.692;8.186;2022-11-21T01:18:34;97950.06;;;5.52;100.00
59531;BME280;45349;48.692;8.186;2022-11-21T01:21:01;97952.34;;;5.35;100.00
59531;BME280;45349;48.692;8.186;2022-11-21T01:23:28;97948.13;;;5.24;100.00
59531;BME280;45349;48.692;8.186;2022-11-21T01:26:00;97944.44;;;5.17;100.00
59531;BME280;45349;48.692;8.186;2022-11-21T01:28:26;97968.13;;;5.12;100.00
59531;BME280;45349;48.692;8.186;2022-11-21T01:31:02;97961.59;;;5.08;100.00
59531;BME280;45349;48.692;8.186;2022-11-21T01:33:28;97978.19;;;5.06;100.00
59531;BME280;45349;48.692;8.186;2022-11-21T01:35:56;97965.50;;;4.93;100.00
59531;BME280;45349;48.692;8.186;2022-11-21T01:38:23;97976.09;;;4.90;100.00
59531;BME280;45349;48.692;8.186;2022-11-21T01:40:49;97976.72;;;4.82;100.00
59531;BME280;45349;48.692;8.186;2022-11-21T01:43:16;97969.63;;;4.74;100.00
59531;BME280;45349;48.692;8.186;2022-11-21T01:45:51;97951.78;;;4.71;100.00
59531;BME280;45349;48.692;8.186;2022-11-21T01:48:19;97943.50;;;4.67;100.00
59531;BME280;45349;48.692;8.186;2022-11-21T01:50:48;97928.94;;;4.66;100.00
59531;BME280;45349;48.692;8.186;2022-11-21T01:53:17;97936.44;;;4.69;100.00
59531;BME280;45349;48.692;8.186;2022-11-21T01:55:44;97921.47;;;4.73;100.00
59531;BME280;45349;48.692;8.186;2022-11-21T01:58:11;97926.22;;;4.78;100.00
59531;BME280;45349;48.692;8.186;2022-11-21T02:00:39;97931.69;;;4.75;100.00
59531;BME280;45349;48.692;8.186;2022-11-21T02:03:09;97926.09;;;4.79;100.00
59531;BME280;45349;48.692;8.186;2022-11-21T02:05:38;97918.09;;;4.82;100.00
59531;BME280;45349;48.692;8.186;2022-11-21T02:08:08;97928.16;;;4.85;100.00
59531;BME280;45349;48.692;8.186;2022-11-21T02:10:42;97932.81;;;4.92;100.00
59531;BME280;45349;48.692;8.186;2022-11-21T02:13:11;97933.25;;;4.97;100.00
59531;BME280;45349;48.692;8.186;2022-11-21T02:15:38;97920.16;;;4.98;100.00
59531;BME280;45349;48.692;8.186;2022-11-21T02:18:05;97906.00;;;5.02;100.00
59531;BME280;45349;48.692;8.186;2022-11-21T02:20:31;97915.28;;;5.05;100.00
59531;BME280;45349;48.692;8.186;2022-11-21T02:23:04;97911.34;;;5.11;100.00
59531;BME280;45349;48.692;8.186;2022-11-21T02:25:37;97916.66;;;5.09;100.00
59531;BME280;45349;48.692;8.186;2022-11-21T02:28:07;97910.38;;;5.12;100.00
59531;BME280;45349;48.692;8.186;2022-11-21T02:30:36;97909.31;;;5.14;100.00
59531;BME280;45349;48.692;8.186;2022-11-21T02:33:03;97899.78;;;5.15;100.00
59531;BME280;45349;48.692;8.186;2022-11-21T02:35:30;97898.69;;;5.17;100.00
59531;BME280;45349;48.692;8.186;2022-11-21T02:38:00;97901.97;;;5.20;100.00
59531;BME280;45349;48.692;8.186;2022-11-21T02:40:30;97888.09;;;5.21;100.00
59531;BME280;45349;48.692;8.186;2022-11-21T02:43:03;97883.03;;;5.19;100.00
59531;BME280;45349;48.692;8.186;2022-11-21T02:45:33;97908.91;;;5.19;100.00
59531;BME280;45349;48.692;8.186;2022-11-21T02:48:03;97893.78;;;5.24;100.00
59531;BME280;45349;48.692;8.186;2022-11-21T02:50:31;97904.72;;;5.28;100.00
59531;BME280;45349;48.692;8.186;2022-11-21T02:52:58;97907.84;;;5.31;100.00
59531;BME280;45349;48.692;8.186;2022-11-21T02:55:25;97899.22;;;5.31;100.00
59531;BME280;45349;48.692;8.186;2022-11-21T02:57:52;97900.59;;;5.35;100.00
59531;BME280;45349;48.692;8.186;2022-11-21T03:00:20;97902.22;;;5.36;100.00
59531;BME280;45349;48.692;8.186;2022-11-21T03:02:47;97898.44;;;5.40;100.00
59531;BME280;45349;48.692;8.186;2022-11-21T03:05:15;97884.53;;;5.41;100.00
59531;BME280;45349;48.692;8.186;2022-11-21T03:07:43;97895.72;;;5.42;100.00
59531;BME280;45349;48.692;8.186;2022-11-21T03:10:10;97894.88;;;5.41;100.00
59531;BME280;45349;48.692;8.186;2022-11-21T03:12:37;97885.22;;;5.43;100.00
59531;BME280;45349;48.692;8.186;2022-11-21T03:15:05;97892.97;;;5.43;100.00
59531;BME280;45349;48.692;8.186;2022-11-21T03:17:34;97885.22;;;5.43;100.00
59531;BME280;45349;48.692;8.186;2022-11-21T03:20:01;97870.63;;;5.42;100.00
59531;BME280;45349;48.692;8.186;2022-11-21T03:22:28;97879.09;;;5.44;100.00
59531;BME280;45349;48.692;8.186;2022-11-21T03:24:54;97879.09;;;5.44;100.00
59531;BME280;45349;48.692;8.186;2022-11-21T03:27:21;97885.09;;;5.45;100.00
59531;BME280;45349;48.692;8.186;2022-11-21T03:29:47;97891.34;;;5.42;100.00
59531;BME280;45349;48.692;8.186;2022-11-21T03:32:14;97885.09;;;5.45;100.00
59531;BME280;45349;48.692;8.186;2022-11-21T03:34:42;97886.72;;;5.46;100.00
59531;BME280;45349;48.692;8.186;2022-11-21T03:37:09;97881.00;;;5.42;100.00
59531;BME280;45349;48.692;8.186;2022-11-21T03:39:35;97884.13;;;5.46;100.00
59531;BME280;45349;48.692;8.186;2022-11-21T03:42:02;97884.13;;;5.46;100.00
59531;BME280;45349;48.692;8.186;2022-11-21T03:44:28;97885.88;;;5.45;100.00
59531;BME280;45349;48.692;8.186;2022-11-21T03:46:55;97878.97;;;5.46;100.00
59531;BME280;45349;48.692;8.186;2022-11-21T03:49:22;97870.63;;;5.42;100.00
59531;BME280;45349;48.692;8.186;2022-11-21T03:51:49;97871.47;;;5.43;100.00
59531;BME280;45349;48.692;8.186;2022-11-21T03:54:16;97869.16;;;5.40;100.00
59531;BME280;45349;48.692;8.186;2022-11-21T03:56:42;97874.31;;;5.40;100.00
59531;BME280;45349;48.692;8.186;2022-11-21T03:59:09;97870.09;;;5.39;100.00
59531;BME280;45349;48.692;8.186;2022-11-21T04:04:17;97874.19;;;5.41;100.00
59531;BME280;45349;48.692;8.186;2022-11-21T04:06:43;97874.19;;;5.41;100.00
59531;BME280;45349;48.692;8.186;2022-11-21T04:09:12;97882.63;;;5.43;100.00
59531;BME280;45349;48.692;8.186;2022-11-21T04:11:38;97889.31;;;5.46;100.00
59531;BME280;45349;48.692;8.186;2022-11-21T04:14:05;97854.56;;;5.49;100.00
59531;BME280;45349;48.692;8.186;2022-11-21T04:16:31;97886.31;;;5.51;100.00
59531;BME280;45349;48.692;8.186;2022-11-21T04:18:58;97867.91;;;5.54;100.00
59531;BME280;45349;48.692;8.186;2022-11-21T04:21:24;97874.44;;;5.58;100.00
59531;BME280;45349;48.692;8.186;2022-11-21T04:23:51;97887.38;;;5.58;100.00
59531;BME280;45349;48.692;8.186;2022-11-21T04:26:19;97879.63;;;5.58;100.00
59531;BME280;45349;48.692;8.186;2022-11-21T04:28:46;97869.94;;;5.60;100.00
59531;BME280;45349;48.692;8.186;2022-11-21T04:31:12;97863.00;;;5.60;100.00
59531;BME280;45349;48.692;8.186;2022-11-21T04:33:39;97866.56;;;5.59;100.00
59531;BME280;45349;48.692;8.186;2022-11-21T04:36:06;97863.97;;;5.59;100.00
59531;BME280;45349;48.692;8.186;2022-11-21T04:38:32;97867.91;;;5.64;100.00
59531;BME280;45349;48.692;8.186;2022-11-21T04:40:59;97870.63;;;5.62;100.00
59531;BME280;45349;48.692;8.186;2022-11-21T04:43:27;97876.38;;;5.66;100.00
59531;BME280;45349;48.692;8.186;2022-11-21T04:45:53;97875.81;;;5.72;100.00
59531;BME280;45349;48.692;8.186;2022-11-21T04:48:20;97886.44;;;5.79;100.00
59531;BME280;45349;48.692;8.186;2022-11-21T04:50:47;97877.03;;;5.78;100.00
59531;BME280;45349;48.692;8.186;2022-11-21T04:53:13;97889.97;;;5.78;100.00
59531;BME280;45349;48.692;8.186;2022-11-21T04:55:40;97881.13;;;5.80;100.00
59531;BME280;45349;48.692;8.186;2022-11-21T04:58:06;97871.28;;;5.84;100.00
59531;BME280;45349;48.692;8.186;2022-11-21T05:00:35;97867.88;;;5.83;100.00
59531;BME280;45349;48.692;8.186;2022-11-21T05:03:05;97868.69;;;5.84;100.00
59531;BME280;45349;48.692;8.186;2022-11-21T05:05:32;97867.47;;;5.88;100.00
59531;BME280;45349;48.692;8.186;2022-11-21T05:07:58;97865.66;;;5.88;100.00
59531;BME280;45349;48.692;8.186;2022-11-21T05:10:25;97872.38;;;5.91;100.00
59531;BME280;45349;48.692;8.186;2022-11-21T05:12:56;97881.34;;;5.97;100.00
59531;BME280;45349;48.692;8.186;2022-11-21T05:15:41;97874.53;;;5.96;100.00
59531;BME280;45349;48.692;8.186;2022-11-21T05:18:07;97885.56;;;5.98;100.00
59531;BME280;45349;48.692;8.186;2022-11-21T05:20:34;97891.56;;;5.98;100.00
59531;BME280;45349;48.692;8.186;2022-11-21T05:23:01;97875.06;;;5.99;100.00
59531;BME280;45349;48.692;8.186;2022-11-21T05:25:27;97882.84;;;5.99;100.00
59531;BME280;45349;48.692;8.186;2022-11-21T05:27:54;97891.56;;;5.98;100.00
59531;BME280;45349;48.692;8.186;2022-11-21T05:30:21;97889.09;;;5.97;100.00
59531;BME280;45349;48.692;8.186;2022-11-21T05:32:49;97900.16;;;5.99;100.00
59531;BME280;45349;48.692;8.186;2022-11-21T05:35:15;97889.78;;;5.99;100.00
59531;BME280;45349;48.692;8.186;2022-11-21T05:37:42;97896.75;;;5.98;100.00
59531;BME280;45349;48.692;8.186;2022-11-21T05:40:09;97900.31;;;5.97;100.00
59531;BME280;45349;48.692;8.186;2022-11-21T05:42:38;97897.84;;;5.96;100.00
59531;BME280;45349;48.692;8.186;2022-11-21T05:45:22;97907.25;;;5.97;100.00
59531;BME280;45349;48.692;8.186;2022-11-21T05:47:50;97901.38;;;5.95;100.00
59531;BME280;45349;48.692;8.186;2022-11-21T05:50:16;97897.16;;;5.94;100.00
59531;BME280;45349;48.692;8.186;2022-11-21T05:52:43;97893.22;;;5.89;100.00
59531;BME280;45349;48.692;8.186;2022-11-21T05:55:09;97889.66;;;5.90;100.00
59531;BME280;45349;48.692;8.186;2022-11-21T05:57:36;97893.88;;;5.91;100.00
59531;BME280;45349;48.692;8.186;2022-11-21T06:00:03;97884.09;;;5.95;100.00
59531;BME280;45349;48.692;8.186;2022-11-21T06:02:30;97885.84;;;5.95;100.00
59531;BME280;45349;48.692;8.186;2022-11-21T06:05:16;97882.16;;;5.97;100.00
59531;BME280;45349;48.692;8.186;2022-11-21T06:07:42;97882.84;;;5.99;100.00
59531;BME280;45349;48.692;8.186;2022-11-21T06:10:09;97874.16;;;6.00;100.00
59531;BME280;45349;48.692;8.186;2022-11-21T06:12:35;97881.47;;;6.05;99.58
59531;BME280;45349;48.692;8.186;2022-11-21T06:15:02;97873.03;;;6.03;99.23
59531;BME280;45349;48.692;8.186;2022-11-21T06:17:29;97885.88;;;6.04;100.00
59531;BME280;45349;48.692;8.186;2022-11-21T06:19:55;97880.97;;;6.01;100.00
59531;BME280;45349;48.692;8.186;2022-11-21T06:22:23;97887.19;;;5.99;100.00
59531;BME280;45349;48.692;8.186;2022-11-21T06:24:50;97889.78;;;5.99;100.00
59531;BME280;45349;48.692;8.186;2022-11-21T06:27:19;97889.41;;;6.03;100.00
59531;BME280;45349;48.692;8.186;2022-11-21T06:29:46;97890.38;;;6.02;98.25
59531;BME280;45349;48.692;8.186;2022-11-21T06:32:12;97878.47;;;6.00;100.00
59531;BME280;45349;48.692;8.186;2022-11-21T06:34:39;97888.03;;;5.99;99.26
59531;BME280;45349;48.692;8.186;2022-11-21T06:37:06;97882.97;;;5.98;98.85
59531;BME280;45349;48.692;8.186;2022-11-21T06:39:33;97888.03;;;5.99;97.48
59531;BME280;45349;48.692;8.186;2022-11-21T06:42:00;97891.56;;;5.98;97.96
59531;BME280;45349;48.692;8.186;2022-11-21T06:44:27;97894.97;;;5.99;98.07
59531;BME280;45349;48.692;8.186;2022-11-21T06:46:53;97893.91;;;6.01;96.75
59531;BME280;45349;48.692;8.186;2022-11-21T06:49:20;97884.59;;;5.99;98.82
59531;BME280;45349;48.692;8.186;2022-11-21T06:51:47;97878.75;;;5.97;98.32
59531;BME280;45349;48.692;8.186;2022-11-21T06:54:14;97885.56;;;5.98;97.16
59531;BME280;45349;48.692;8.186;2022-11-21T06:56:42;97878.38;;;6.01;96.37
59531;BME280;45349;48.692;8.186;2022-11-21T06:59:09;97875.78;;;6.01;97.47
59531;BME280;45349;48.692;8.186;2022-11-21T07:01:38;97870.59;;;6.01;97.25
59531;BME280;45349;48.692;8.186;2022-11-21T07:04:04;97882.31;;;6.05;97.85
59531;BME280;45349;48.692;8.186;2022-11-21T07:06:33;97886.00;;;6.03;98.81
59531;BME280;45349;48.692;8.186;2022-11-21T07:09:00;97883.41;;;6.03;100.00
59531;BME280;45349;48.692;8.186;2022-11-21T07:11:26;97882.84;;;6.09;96.69
59531;BME280;45349;48.692;8.186;2022-11-21T07:13:54;97880.94;;;6.11;96.10
59531;BME280;45349;48.692;8.186;2022-11-21T07:16:20;97894.72;;;6.12;98.42
59531;BME280;45349;48.692;8.186;2022-11-21T07:18:50;97891.56;;;6.18;93.47
59531;BME280;45349;48.692;8.186;2022-11-21T07:21:16;97889.38;;;6.23;92.66
59531;BME280;45349;48.692;8.186;2022-11-21T07:23:43;97881.19;;;6.18;94.24
59531;BME280;45349;48.692;8.186;2022-11-21T07:26:10;97871.50;;;6.20;94.81
59531;BME280;45349;48.692;8.186;2022-11-21T07:28:36;97872.59;;;6.17;95.46
59531;BME280;45349;48.692;8.186;2022-11-21T07:31:05;97861.44;;;6.17;95.23
59531;BME280;45349;48.692;8.186;2022-11-21T07:33:35;97861.44;;;6.17;96.20
59531;BME280;45349;48.692;8.186;2022-11-21T07:36:02;97872.19;;;6.22;93.27
59531;BME280;45349;48.692;8.186;2022-11-21T07:38:29;97860.84;;;6.23;93.69
59531;BME280;45349;48.692;8.186;2022-11-21T07:40:56;97850.34;;;6.25;94.60
59531;BME280;45349;48.692;8.186;2022-11-21T07:43:22;97867.09;;;6.30;93.93
59531;BME280;45349;48.692;8.186;2022-11-21T07:45:49;97857.94;;;6.36;91.79
59531;BME280;45349;48.692;8.186;2022-11-21T07:48:17;97848.06;;;6.40;91.23
59531;BME280;45349;48.692;8.186;2022-11-21T07:50:46;97850.09;;;6.46;90.36
59531;BME280;45349;48.692;8.186;2022-11-21T07:53:13;97848.84;;;6.50;91.52
59531;BME280;45349;48.692;8.186;2022-11-21T07:55:39;97837.81;;;6.48;89.55
59531;BME280;45349;48.692;8.186;2022-11-21T07:58:08;97855.09;;;6.57;89.79
59531;BME280;45349;48.692;8.186;2022-11-21T08:00:36;97855.09;;;6.57;90.62
59531;BME280;45349;48.692;8.186;2022-11-21T08:03:04;97839.69;;;6.56;90.81
59531;BME280;45349;48.692;8.186;2022-11-21T08:05:35;97835.13;;;6.68;86.97
59531;BME280;45349;48.692;8.186;2022-11-21T08:08:03;97840.84;;;6.71;87.86
59531;BME280;45349;48.692;8.186;2022-11-21T08:10:30;97838.38;;;6.70;87.77
59531;BME280;45349;48.692;8.186;2022-11-21T08:12:56;97833.44;;;6.76;87.94
59531;BME280;45349;48.692;8.186;2022-11-21T08:15:23;97828.38;;;6.75;87.19
59531;BME280;45349;48.692;8.186;2022-11-21T08:17:50;97828.34;;;6.85;87.17
59531;BME280;45349;48.692;8.186;2022-11-21T08:20:16;97831.28;;;6.90;88.30
59531;BME280;45349;48.692;8.186;2022-11-21T08:22:44;97831.28;;;6.90;88.74
59531;BME280;45349;48.692;8.186;2022-11-21T08:25:11;97831.16;;;6.91;88.58
59531;BME280;45349;48.692;8.186;2022-11-21T08:27:38;97833.38;;;6.86;87.03
59531;BME280;45349;48.692;8.186;2022-11-21T08:30:05;97826.63;;;6.93;88.27
59531;BME280;45349;48.692;8.186;2022-11-21T08:32:32;97823.22;;;6.93;88.25
59531;BME280;45349;48.692;8.186;2022-11-21T08:34:59;97825.75;;;7.03;84.20
59531;BME280;45349;48.692;8.186;2022-11-21T08:37:26;97818.63;;;7.05;84.80
59531;BME280;45349;48.692;8.186;2022-11-21T08:39:54;97817.44;;;6.99;85.86
59531;BME280;45349;48.692;8.186;2022-11-21T08:42:23;97814.53;;;7.02;85.78
59531;BME280;45349;48.692;8.186;2022-11-21T08:44:50;97811.28;;;7.18;85.19
59531;BME280;45349;48.692;8.186;2022-11-21T08:47:16;97804.53;;;7.26;84.39
59531;BME280;45349;48.692;8.186;2022-11-21T08:49:43;97804.16;;;7.38;84.91
59531;BME280;45349;48.692;8.186;2022-11-21T08:52:09;97796.53;;;7.37;81.58
59531;BME280;45349;48.692;8.186;2022-11-21T08:54:36;97792.97;;;7.38;81.25
59531;BME280;45349;48.692;8.186;2022-11-21T08:57:04;97797.50;;;7.36;80.94
59531;BME280;45349;48.692;8.186;2022-11-21T08:59:31;97800.09;;;7.36;81.53
59531;BME280;45349;48.692;8.186;2022-11-21T09:01:57;97795.56;;;7.20;82.43
59531;BME280;45349;48.692;8.186;2022-11-21T09:04:24;97791.78;;;7.14;82.29
59531;BME280;45349;48.692;8.186;2022-11-21T09:06:50;97800.97;;;7.27;82.73
59531;BME280;45349;48.692;8.186;2022-11-21T09:09:17;97802.69;;;7.36;81.55
59531;BME280;45349;48.692;8.186;2022-11-21T09:11:43;97798.25;;;7.54;81.21
59531;BME280;45349;48.692;8.186;2022-11-21T09:14:11;97793.09;;;7.63;80.72
59531;BME280;45349;48.692;8.186;2022-11-21T09:16:55;97793.28;;;7.61;81.06
59531;BME280;45349;48.692;8.186;2022-11-21T09:19:39;97774.50;;;7.49;81.06
59531;BME280;45349;48.692;8.186;2022-11-21T09:22:06;97778.03;;;7.40;81.47
59531;BME280;45349;48.692;8.186;2022-11-21T09:24:32;97765.69;;;7.42;80.23
59531;BME280;45349;48.692;8.186;2022-11-21T09:26:59;97756.03;;;7.26;81.85
59531;BME280;45349;48.692;8.186;2022-11-21T09:29:27;97754.56;;;7.23;82.10
59531;BME280;45349;48.692;8.186;2022-11-21T09:31:53;97749.38;;;7.23;84.10
59531;BME280;45349;48.692;8.186;2022-11-21T09:34:20;97759.38;;;7.18;84.72
59531;BME280;45349;48.692;8.186;2022-11-21T09:36:46;97754.38;;;7.25;84.79
59531;BME280;45349;48.692;8.186;2022-11-21T09:39:13;97748.91;;;7.28;84.72
59531;BME280;45349;48.692;8.186;2022-11-21T09:41:49;97740.81;;;7.31;84.11
59531;BME280;45349;48.692;8.186;2022-11-21T09:44:40;97751.72;;;7.35;81.61
59531;BME280;45349;48.692;8.186;2022-11-21T09:47:20;97770.25;;;7.40;81.51
59531;BME280;45349;48.692;8.186;2022-11-21T09:49:51;97754.16;;;7.36;80.86
59531;BME280;45349;48.692;8.186;2022-11-21T09:52:21;97761.38;;;7.51;80.05
59531;BME280;45349;48.692;8.186;2022-11-21T09:54:52;97751.31;;;7.48;82.05
59531;BME280;45349;48.692;8.186;2022-11-21T09:57:23;97738.03;;;7.51;80.54
59531;BME280;45349;48.692;8.186;2022-11-21T09:59:52;97728.03;;;7.64;81.33
59531;BME280;45349;48.692;8.186;2022-11-21T10:02:20;97724.41;;;7.57;81.32
59531;BME280;45349;48.692;8.186;2022-11-21T10:04:49;97712.72;;;7.53;82.02
59531;BME280;45349;48.692;8.186;2022-11-21T10:07:21;97709.94;;;7.54;81.67
59531;BME280;45349;48.692;8.186;2022-11-21T10:10:18;97706.81;;;7.43;83.36
59531;BME280;45349;48.692;8.186;2022-11-21T10:13:01;97713.16;;;7.48;82.53
59531;BME280;45349;48.692;8.186;2022-11-21T10:15:38;97700.22;;;7.57;79.17
59531;BME280;45349;48.692;8.186;2022-11-21T10:18:30;97699.38;;;7.48;81.27
59531;BME280;45349;48.692;8.186;2022-11-21T10:21:02;97699.56;;;7.54;81.76
59531;BME280;45349;48.692;8.186;2022-11-21T10:23:42;97687.59;;;7.62;79.24
59531;BME280;45349;48.692;8.186;2022-11-21T10:26:16;97687.28;;;8.08;78.34
59531;BME280;45349;48.692;8.186;2022-11-21T10:28:50;97678.75;;;8.49;75.40
59531;BME280;45349;48.692;8.186;2022-11-21T10:31:20;97677.81;;;8.83;75.44
59531;BME280;45349;48.692;8.186;2022-11-21T10:33:48;97664.97;;;8.98;74.74
59531;BME280;45349;48.692;8.186;2022-11-21T10:36:24;97658.78;;;8.99;75.02
59531;BME280;45349;48.692;8.186;2022-11-21T10:38:57;97656.03;;;8.76;75.04
59531;BME280;45349;48.692;8.186;2022-11-21T10:41:36;97653.94;;;8.63;74.25
59531;BME280;45349;48.692;8.186;2022-11-21T10:44:11;97643.19;;;8.74;73.28
59531;BME280;45349;48.692;8.186;2022-11-21T10:47:00;97638.03;;;9.39;71.83
59531;BME280;45349;48.692;8.186;2022-11-21T10:49:28;97618.09;;;9.54;70.91
59531;BME280;45349;48.692;8.186;2022-11-21T10:52:03;97609.41;;;9.70;70.95
59531;BME280;45349;48.692;8.186;2022-11-21T10:54:31;97616.88;;;9.42;69.56
59531;BME280;45349;48.692;8.186;2022-11-21T10:57:00;97608.59;;;9.30;70.86
59531;BME280;45349;48.692;8.186;2022-11-21T10:59:28;97601.09;;;9.27;72.29
59531;BME280;45349;48.692;8.186;2022-11-21T11:01:59;97595.63;;;9.13;71.83
59531;BME280;45349;48.692;8.186;2022-11-21T11:04:27;97592.06;;;9.06;71.88
59531;BME280;45349;48.692;8.186;2022-11-21T11:06:54;97588.19;;;8.94;72.63
59531;BME280;45349;48.692;8.186;2022-11-21T11:09:23;97583.78;;;9.03;71.20
59531;BME280;45349;48.692;8.186;2022-11-21T11:11:50;97583.78;;;8.94;70.30
59531;BME280;45349;48.692;8.186;2022-11-21T11:14:27;97574.72;;;8.82;72.97
59531;BME280;45349;48.692;8.186;2022-11-21T11:16:55;97576.53;;;8.73;72.69
59531;BME280;45349;48.692;8.186;2022-11-21T11:19:25;97569.16;;;8.93;71.38
59531;BME280;45349;48.692;8.186;2022-11-21T11:21:52;97561.03;;;8.88;71.56
59531;BME280;45349;48.692;8.186;2022-11-21T11:24:23;97562.34;;;8.84;72.21
59531;BME280;45349;48.692;8.186;2022-11-21T11:26:56;97567.06;;;8.80;73.12
59531;BME280;45349;48.692;8.186;2022-11-21T11:29:24;97554.84;;;8.97;70.88
59531;BME280;45349;48.692;8.186;2022-11-21T11:31:54;97543.00;;;8.78;70.43
59531;BME280;45349;48.692;8.186;2022-11-21T11:34:25;97531.91;;;8.93;69.18
59531;BME280;45349;48.692;8.186;2022-11-21T11:37:02;97531.44;;;8.89;71.68
59531;BME280;45349;48.692;8.186;2022-11-21T11:39:38;97536.97;;;8.78;70.36
59531;BME280;45349;48.692;8.186;2022-11-21T11:42:25;97521.88;;;8.81;69.63
59531;BME280;45349;48.692;8.186;2022-11-21T11:45:27;97513.19;;;8.97;72.49
59531;BME280;45349;48.692;8.186;2022-11-21T11:48:14;97514.34;;;9.35;71.67
59531;BME280;45349;48.692;8.186;2022-11-21T11:50:46;97513.91;;;9.23;67.79
59531;BME280;45349;48.692;8.186;2022-11-21T11:53:17;97512.09;;;9.32;68.85
59531;BME280;45349;48.692;8.186;2022-11-21T11:55:47;97507.34;;;9.35;68.21
59531;BME280;45349;48.692;8.186;2022-11-21T11:58:22;97501.38;;;9.26;69.50
59531;BME280;45349;48.692;8.186;2022-11-21T12:00:57;97480.59;;;9.41;67.10
59531;BME280;45349;48.692;8.186;2022-11-21T12:03:35;97464.31;;;9.16;68.88
59531;BME280;45349;48.692;8.186;2022-11-21T12:06:11;97463.28;;;9.25;67.61
59531;BME280;45349;48.692;8.186;2022-11-21T12:08:45;97464.94;;;9.18;69.68
59531;BME280;45349;48.692;8.186;2022-11-21T12:11:28;97458.19;;;9.32;69.24
59531;BME280;45349;48.692;8.186;2022-11-21T12:14:41;97450.63;;;9.45;69.50
59531;BME280;45349;48.692;8.186;2022-11-21T12:17:34;97447.63;;;9.57;69.47
59531;BME280;45349;48.692;8.186;2022-11-21T12:20:12;97439.81;;;9.57;67.97
59531;BME280;45349;48.692;8.186;2022-11-21T12:22:41;97434.94;;;9.77;67.52
59531;BME280;45349;48.692;8.186;2022-11-21T12:25:10;97425.19;;;9.94;69.92
59531;BME280;45349;48.692;8.186;2022-11-21T12:27:39;97424.66;;;10.14;63.81
59531;BME280;45349;48.692;8.186;2022-11-21T12:30:22;97423.41;;;10.10;63.47
59531;BME280;45349;48.692;8.186;2022-11-21T12:32:56;97418.66;;;10.13;63.27
59531;BME280;45349;48.692;8.186;2022-11-21T12:35:37;97415.41;;;10.11;62.33
59531;BME280;45349;48.692;8.186;2022-11-21T12:38:16;97404.16;;;10.11;62.78
59531;BME280;45349;48.692;8.186;2022-11-21T12:40:57;97394.19;;;9.99;64.96
59531;BME280;45349;48.692;8.186;2022-11-21T12:43:49;97390.06;;;10.20;66.31
59531;BME280;45349;48.692;8.186;2022-11-21T12:46:23;97380.19;;;10.30;64.04
59531;BME280;45349;48.692;8.186;2022-11-21T12:48:57;97378.66;;;10.36;62.77
59531;BME280;45349;48.692;8.186;2022-11-21T12:51:56;97372.91;;;10.26;64.42
59531;BME280;45349;48.692;8.186;2022-11-21T12:54:54;97370.63;;;10.08;64.86
59531;BME280;45349;48.692;8.186;2022-11-21T12:57:31;97368.56;;;10.03;68.26
59531;BME280;45349;48.692;8.186;2022-11-21T13:00:07;97363.63;;;9.93;68.24
59531;BME280;45349;48.692;8.186;2022-11-21T13:03:00;97354.91;;;9.86;69.39
59531;BME280;45349;48.692;8.186;2022-11-21T13:05:31;97357.38;;;9.64;68.21
59531;BME280;45349;48.692;8.186;2022-11-21T13:08:05;97354.63;;;9.57;66.74
59531;BME280;45349;48.692;8.186;2022-11-21T13:10:35;97359.41;;;9.54;68.67
59531;BME280;45349;48.692;8.186;2022-11-21T13:13:08;97353.28;;;9.47;70.06
59531;BME280;45349;48.692;8.186;2022-11-21T13:15:43;97345.09;;;9.50;69.83
59531;BME280;45349;48.692;8.186;2022-11-21T13:18:18;97341.34;;;9.52;71.93
59531;BME280;45349;48.692;8.186;2022-11-21T13:20:48;97341.44;;;9.59;69.93
59531;BME280;45349;48.692;8.186;2022-11-21T13:23:34;97338.13;;;9.50;70.70
59531;BME280;45349;48.692;8.186;2022-11-21T13:29:17;97332.00;;;9.58;70.38